Time;durP1;ratioP1;P1;durP2;ratioP2;P2;SDS_P1;SDS_P2;PMS_P1;PMS_P2;Temp;Humidity;BMP_temperature;BMP_pressure;BME280_temperature;BME280_humidity;BME280_pressure;Samples;Min_cycle;Max_cycle;Signal;HPM_P1;HPM_P2
2021/06/09 00:00:32;;;;;;;15.68;14.18;;;;;;;;;;4893632;29;20060;-46
2021/06/09 00:02:59;;;;;;;16.35;13.88;;;;;;;;;;4891058;29;20147;-43
2021/06/09 00:05:26;;;;;;;14.48;13.07;;;;;;;;;;4887898;29;20539;-43
2021/06/09 00:07:53;;;;;;;17.10;15.30;;;;;;;;;;4893952;29;20710;-41
2021/06/09 00:10:20;;;;;;;14.80;13.48;;;;;;;;;;4896283;29;20080;-44
2021/06/09 00:12:47;;;;;;;16.38;14.82;;;;;;;;;;4893802;29;20530;-44
2021/06/09 00:15:14;;;;;;;15.07;13.68;;;;;;;;;;4896658;29;20055;-43
2021/06/09 00:17:42;;;;;;;15.50;14.00;;;;;;;;;;4893604;29;20044;-44
2021/06/09 00:20:11;;;;;;;15.13;13.73;;;;;;;;;;4897183;29;20063;-44
2021/06/09 00:22:38;;;;;;;16.55;14.95;;;;;;;;;;4896780;29;20116;-44
2021/06/09 00:25:13;;;;;;;16.38;14.68;;;;;;;;;;4897390;29;20063;-47
2021/06/09 00:27:40;;;;;;;15.30;13.90;;;;;;;;;;4895607;29;20108;-44
2021/06/09 00:30:07;;;;;;;15.07;13.43;;;;;;;;;;4881485;29;20053;-44
2021/06/09 00:32:34;;;;;;;16.75;13.93;;;;;;;;;;4898133;29;20112;-44
2021/06/09 00:35:01;;;;;;;17.25;15.55;;;;;;;;;;4896603;29;20435;-43
2021/06/09 00:37:28;;;;;;;17.92;15.38;;;;;;;;;;4900318;29;20069;-45
2021/06/09 00:39:54;;;;;;;17.35;15.55;;;;;;;;;;4898545;29;20104;-42
2021/06/09 00:42:22;;;;;;;16.95;15.25;;;;;;;;;;4897312;29;20057;-43
2021/06/09 00:44:49;;;;;;;17.35;15.65;;;;;;;;;;4891165;29;20108;-44
2021/06/09 00:47:26;;;;;;;15.50;14.00;;;;;;;;;;4891449;29;20068;-43
2021/06/09 00:49:53;;;;;;;15.27;13.68;;;;;;;;;;4895464;29;20531;-42
2021/06/09 00:52:24;;;;;;;15.82;14.20;;;;;;;;;;4894813;29;20053;-44
2021/06/09 00:54:51;;;;;;;17.48;15.68;;;;;;;;;;4889691;29;20053;-44
2021/06/09 00:57:18;;;;;;;16.95;15.18;;;;;;;;;;4879484;29;20097;-44
2021/06/09 00:59:45;;;;;;;18.88;15.05;;;;;;;;;;4890779;29;20044;-43
2021/06/09 01:02:12;;;;;;;16.30;14.80;;;;;;;;;;4894087;29;20072;-43
2021/06/09 01:04:39;;;;;;;17.45;15.68;;;;;;;;;;4896937;29;20068;-43
2021/06/09 01:07:08;;;;;;;16.98;15.38;;;;;;;;;;4896398;29;20081;-44
2021/06/09 01:09:35;;;;;;;16.42;14.82;;;;;;;;;;4897100;29;20076;-44
2021/06/09 01:12:03;;;;;;;15.65;14.13;;;;;;;;;;4891899;29;20075;-43
2021/06/09 01:14:30;;;;;;;16.88;15.18;;;;;;;;;;4892246;29;20049;-47
2021/06/09 01:16:57;;;;;;;17.05;15.45;;;;;;;;;;4894881;29;20526;-43
2021/06/09 01:19:23;;;;;;;16.23;14.63;;;;;;;;;;4891972;29;20065;-43
2021/06/09 01:21:50;;;;;;;16.33;14.73;;;;;;;;;;4895768;29;20511;-45
2021/06/09 01:24:17;;;;;;;16.48;14.30;;;;;;;;;;4895912;29;20112;-43
2021/06/09 01:26:44;;;;;;;15.57;14.10;;;;;;;;;;4891832;29;20056;-44
2021/06/09 01:29:11;;;;;;;16.77;14.75;;;;;;;;;;4896071;29;20092;-46
2021/06/09 01:31:38;;;;;;;15.40;14.00;;;;;;;;;;4894735;29;20112;-47
2021/06/09 01:34:06;;;;;;;17.30;15.55;;;;;;;;;;4889381;29;20052;-43
2021/06/09 01:36:37;;;;;;;18.20;15.60;;;;;;;;;;4894706;29;20510;-43
2021/06/09 01:39:08;;;;;;;17.25;15.40;;;;;;;;;;4896651;29;20558;-46
2021/06/09 01:41:35;;;;;;;17.92;16.10;;;;;;;;;;4893813;29;20123;-43
2021/06/09 01:44:02;;;;;;;17.70;16.00;;;;;;;;;;4879550;29;20528;-43
2021/06/09 01:46:29;;;;;;;18.92;16.88;;;;;;;;;;4897461;29;20056;-43
2021/06/09 01:48:56;;;;;;;18.05;16.33;;;;;;;;;;4880302;29;20060;-46
2021/06/09 01:51:23;;;;;;;19.63;17.70;;;;;;;;;;4894884;29;20515;-44
2021/06/09 01:53:51;;;;;;;18.33;16.48;;;;;;;;;;4897329;29;20419;-44
2021/06/09 01:56:17;;;;;;;19.60;17.50;;;;;;;;;;4893401;29;20045;-46
2021/06/09 01:58:44;;;;;;;19.17;17.33;;;;;;;;;;4877242;29;20477;-44
2021/06/09 02:01:11;;;;;;;20.08;16.65;;;;;;;;;;4892021;29;20149;-45
2021/06/09 02:03:38;;;;;;;18.75;16.92;;;;;;;;;;4897147;29;20049;-43
2021/06/09 02:06:05;;;;;;;17.88;16.17;;;;;;;;;;4882399;29;20053;-44
2021/06/09 02:08:32;;;;;;;17.70;16.00;;;;;;;;;;4897003;29;20056;-44
2021/06/09 02:10:59;;;;;;;18.35;16.50;;;;;;;;;;4894019;29;20107;-43
2021/06/09 02:13:26;;;;;;;18.65;16.85;;;;;;;;;;4895788;29;20586;-44
2021/06/09 02:15:54;;;;;;;18.88;16.50;;;;;;;;;;4894685;29;20064;-43
2021/06/09 02:18:22;;;;;;;17.15;15.55;;;;;;;;;;4895479;29;20085;-43
2021/06/09 02:20:51;;;;;;;19.85;16.80;;;;;;;;;;4896099;29;20534;-43
2021/06/09 02:23:19;;;;;;;18.40;16.50;;;;;;;;;;4896055;29;20467;-44
2021/06/09 02:25:47;;;;;;;18.42;16.63;;;;;;;;;;4895944;29;20507;-44
2021/06/09 02:28:14;;;;;;;19.42;17.48;;;;;;;;;;4884630;29;20101;-43
2021/06/09 02:30:41;;;;;;;19.67;17.67;;;;;;;;;;4892008;29;20415;-46
2021/06/09 02:33:09;;;;;;;19.50;17.40;;;;;;;;;;4894804;29;20076;-43
2021/06/09 02:35:37;;;;;;;20.85;18.80;;;;;;;;;;4894852;29;20049;-45
2021/06/09 02:38:04;;;;;;;21.05;18.92;;;;;;;;;;4893819;29;20119;-43
2021/06/09 02:40:31;;;;;;;22.23;18.90;;;;;;;;;;4896364;29;20566;-45
2021/06/09 02:42:59;;;;;;;20.00;17.88;;;;;;;;;;4896641;29;20369;-43
2021/06/09 02:45:26;;;;;;;19.67;17.15;;;;;;;;;;4891861;29;20056;-44
2021/06/09 02:47:54;;;;;;;18.05;16.23;;;;;;;;;;4885240;29;20487;-44
2021/06/09 02:50:22;;;;;;;17.70;15.80;;;;;;;;;;4893080;29;20072;-44
2021/06/09 02:52:53;;;;;;;16.42;14.82;;;;;;;;;;4894905;29;20051;-45
2021/06/09 02:55:25;;;;;;;18.77;16.80;;;;;;;;;;4888414;29;20068;-47
2021/06/09 02:57:56;;;;;;;19.30;17.30;;;;;;;;;;4898339;29;20100;-46
2021/06/09 03:00:25;;;;;;;20.20;18.20;;;;;;;;;;4895138;29;20195;-48
2021/06/09 03:03:10;;;;;;;18.85;17.02;;;;;;;;;;4890898;29;20416;-44
2021/06/09 03:05:42;;;;;;;19.67;17.67;;;;;;;;;;4887442;29;20392;-43
2021/06/09 03:08:38;;;;;;;20.27;18.27;;;;;;;;;;4891990;29;20136;-44
2021/06/09 03:11:22;;;;;;;19.60;17.50;;;;;;;;;;4881874;29;20487;-44
2021/06/09 03:14:16;;;;;;;19.75;17.65;;;;;;;;;;4896566;29;20138;-45
2021/06/09 03:16:46;;;;;;;19.50;17.50;;;;;;;;;;4894216;29;20143;-43
2021/06/09 03:19:17;;;;;;;17.83;15.93;;;;;;;;;;4890327;29;20076;-43
2021/06/09 03:21:47;;;;;;;18.42;16.63;;;;;;;;;;4894214;29;20060;-45
2021/06/09 03:24:14;;;;;;;17.83;15.95;;;;;;;;;;4895980;29;20555;-45
2021/06/09 03:26:41;;;;;;;20.75;17.42;;;;;;;;;;4894435;29;20076;-45
2021/06/09 03:29:14;;;;;;;18.42;16.63;;;;;;;;;;4896003;29;20131;-43
2021/06/09 03:31:46;;;;;;;17.27;15.55;;;;;;;;;;4893754;29;20079;-44
2021/06/09 03:34:19;;;;;;;16.88;15.15;;;;;;;;;;4878387;29;20060;-46
2021/06/09 03:36:47;;;;;;;18.02;16.23;;;;;;;;;;4891892;29;20131;-43
2021/06/09 03:39:15;;;;;;;17.85;15.93;;;;;;;;;;4894494;29;20225;-44
2021/06/09 03:41:51;;;;;;;19.33;17.33;;;;;;;;;;4885053;29;20143;-44
2021/06/09 03:44:22;;;;;;;18.60;16.73;;;;;;;;;;4895631;29;20464;-43
2021/06/09 03:46:49;;;;;;;19.17;17.15;;;;;;;;;;4894350;29;20526;-44
2021/06/09 03:49:17;;;;;;;18.27;16.35;;;;;;;;;;4893351;29;20048;-45
2021/06/09 03:51:44;;;;;;;18.42;16.63;;;;;;;;;;4892117;29;20056;-44
2021/06/09 03:54:11;;;;;;;20.13;18.08;;;;;;;;;;4897076;29;20128;-45
2021/06/09 03:56:40;;;;;;;22.33;18.90;;;;;;;;;;4887871;29;20504;-47
2021/06/09 03:59:09;;;;;;;20.20;18.15;;;;;;;;;;4897125;29;20052;-44
2021/06/09 04:01:39;;;;;;;23.02;18.92;;;;;;;;;;4893720;29;20116;-44
2021/06/09 04:04:07;;;;;;;26.25;20.48;;;;;;;;;;4898017;29;20132;-44
2021/06/09 04:06:36;;;;;;;20.52;18.33;;;;;;;;;;4898167;29;20504;-44
2021/06/09 04:09:03;;;;;;;22.67;20.13;;;;;;;;;;4899200;29;20067;-42
2021/06/09 04:11:31;;;;;;;20.80;18.70;;;;;;;;;;4896974;29;20048;-49
2021/06/09 04:13:58;;;;;;;21.13;18.98;;;;;;;;;;4881392;29;20084;-46
2021/06/09 04:16:26;;;;;;;22.65;18.08;;;;;;;;;;4895114;29;20459;-45
2021/06/09 04:18:54;;;;;;;23.90;18.67;;;;;;;;;;4882466;29;20057;-44
2021/06/09 04:21:24;;;;;;;19.73;17.33;;;;;;;;;;4893773;29;20541;-48
2021/06/09 04:23:51;;;;;;;21.30;18.48;;;;;;;;;;4899094;29;20083;-44
2021/06/09 04:26:18;;;;;;;20.25;17.90;;;;;;;;;;4889264;29;20064;-46
2021/06/09 04:28:46;;;;;;;20.20;17.65;;;;;;;;;;4898438;29;20108;-44
2021/06/09 04:31:13;;;;;;;20.70;18.17;;;;;;;;;;4895695;29;20093;-44
2021/06/09 04:33:44;;;;;;;19.85;17.23;;;;;;;;;;4898689;29;20060;-45
2021/06/09 04:36:12;;;;;;;19.00;17.00;;;;;;;;;;4893652;29;20119;-45
2021/06/09 04:38:39;;;;;;;18.17;16.27;;;;;;;;;;4897501;29;20200;-44
2021/06/09 04:41:06;;;;;;;18.98;16.98;;;;;;;;;;4896762;29;20463;-45
2021/06/09 04:43:34;;;;;;;20.20;18.10;;;;;;;;;;4896913;29;20091;-45
2021/06/09 04:46:01;;;;;;;19.23;17.13;;;;;;;;;;4897956;29;20183;-42
2021/06/09 04:48:28;;;;;;;19.85;17.73;;;;;;;;;;4896778;29;20083;-44
2021/06/09 04:50:55;;;;;;;20.90;18.80;;;;;;;;;;4897084;29;20733;-44
2021/06/09 04:53:22;;;;;;;20.90;18.70;;;;;;;;;;4907643;29;20059;-46
2021/06/09 04:55:50;;;;;;;20.55;18.45;;;;;;;;;;4883782;29;20041;-44
2021/06/09 04:58:18;;;;;;;21.38;19.02;;;;;;;;;;4880671;29;20647;-44
2021/06/09 05:00:45;;;;;;;20.70;18.70;;;;;;;;;;4891388;29;20119;-43
2021/06/09 05:03:12;;;;;;;20.40;18.10;;;;;;;;;;4898461;29;20091;-42
2021/06/09 05:05:40;;;;;;;22.63;17.85;;;;;;;;;;4887692;29;20471;-45
2021/06/09 05:08:07;;;;;;;21.88;18.27;;;;;;;;;;4898670;29;20503;-42
2021/06/09 05:10:34;;;;;;;21.17;17.55;;;;;;;;;;4888036;29;20673;-41
2021/06/09 05:13:05;;;;;;;20.05;18.05;;;;;;;;;;4891278;29;20559;-42
2021/06/09 05:15:34;;;;;;;19.73;17.65;;;;;;;;;;4887786;29;20132;-43
2021/06/09 05:18:01;;;;;;;24.30;18.77;;;;;;;;;;4888213;29;20080;-42
2021/06/09 05:20:31;;;;;;;21.13;18.83;;;;;;;;;;4898297;29;20056;-46
2021/06/09 05:23:17;;;;;;;19.20;17.05;;;;;;;;;;4895934;29;20463;-43
2021/06/09 05:25:44;;;;;;;20.92;18.73;;;;;;;;;;4886514;29;20401;-42
2021/06/09 05:28:12;;;;;;;19.92;17.88;;;;;;;;;;4896689;29;20139;-42
2021/06/09 05:30:40;;;;;;;20.48;18.45;;;;;;;;;;4897875;29;20075;-42
2021/06/09 05:33:07;;;;;;;20.83;18.63;;;;;;;;;;4897598;29;20051;-44
2021/06/09 05:35:34;;;;;;;21.10;19.00;;;;;;;;;;4897863;29;20155;-44
2021/06/09 05:38:02;;;;;;;19.98;17.90;;;;;;;;;;4896692;29;20052;-44
2021/06/09 05:40:29;;;;;;;20.38;18.27;;;;;;;;;;4897284;29;20045;-44
2021/06/09 05:42:56;;;;;;;20.38;18.27;;;;;;;;;;4878815;29;20061;-45
2021/06/09 05:45:27;;;;;;;21.42;19.17;;;;;;;;;;4897852;29;20056;-44
2021/06/09 05:47:54;;;;;;;19.85;17.85;;;;;;;;;;4892627;29;20057;-42
2021/06/09 05:50:22;;;;;;;20.98;18.45;;;;;;;;;;4897402;29;20056;-43
2021/06/09 05:52:50;;;;;;;20.88;18.67;;;;;;;;;;4898180;29;20076;-43
2021/06/09 05:55:22;;;;;;;20.25;18.15;;;;;;;;;;4897317;29;20523;-44
2021/06/09 05:57:49;;;;;;;20.92;18.73;;;;;;;;;;4879749;29;20525;-44
2021/06/09 06:00:19;;;;;;;20.60;18.20;;;;;;;;;;4879814;29;20693;-43
2021/06/09 06:02:46;;;;;;;19.45;17.48;;;;;;;;;;4877602;29;20419;-45
2021/06/09 06:05:13;;;;;;;21.23;19.10;;;;;;;;;;4878397;29;20091;-45
2021/06/09 06:07:40;;;;;;;21.00;18.73;;;;;;;;;;4896485;29;20052;-44
2021/06/09 06:10:07;;;;;;;20.50;18.40;;;;;;;;;;4879053;29;20061;-45
2021/06/09 06:12:35;;;;;;;20.50;18.40;;;;;;;;;;4896373;29;20053;-44
2021/06/09 06:15:06;;;;;;;20.98;18.63;;;;;;;;;;4889311;29;20045;-44
2021/06/09 06:17:33;;;;;;;20.67;17.98;;;;;;;;;;4878840;29;20494;-44
2021/06/09 06:20:00;;;;;;;19.95;17.95;;;;;;;;;;4894651;29;20743;-44
2021/06/09 06:22:29;;;;;;;20.77;18.60;;;;;;;;;;4893940;29;20048;-44
2021/06/09 06:24:57;;;;;;;19.52;17.52;;;;;;;;;;4895155;29;20097;-44
2021/06/09 06:27:24;;;;;;;18.20;16.33;;;;;;;;;;4883410;29;20100;-42
2021/06/09 06:29:51;;;;;;;18.08;16.17;;;;;;;;;;4878210;29;20112;-44
2021/06/09 06:32:20;;;;;;;19.65;17.55;;;;;;;;;;4893298;29;20052;-43
2021/06/09 06:34:49;;;;;;;18.67;16.77;;;;;;;;;;4889852;29;20460;-44
2021/06/09 06:37:16;;;;;;;18.52;16.40;;;;;;;;;;4890664;29;20080;-45
2021/06/09 06:39:44;;;;;;;18.88;16.90;;;;;;;;;;4897343;29;20064;-44
2021/06/09 06:42:11;;;;;;;17.35;15.60;;;;;;;;;;4892928;29;20095;-43
2021/06/09 06:44:40;;;;;;;18.40;16.50;;;;;;;;;;4878014;29;20076;-43
2021/06/09 06:47:07;;;;;;;18.88;16.05;;;;;;;;;;4892534;29;20151;-45
2021/06/09 06:49:36;;;;;;;18.48;16.58;;;;;;;;;;4877585;29;20508;-43
2021/06/09 06:52:03;;;;;;;17.88;15.98;;;;;;;;;;4893496;29;20129;-43
2021/06/09 06:54:30;;;;;;;18.25;15.98;;;;;;;;;;4896559;29;20396;-44
2021/06/09 06:56:57;;;;;;;20.10;16.15;;;;;;;;;;4888228;29;20451;-46
2021/06/09 06:59:25;;;;;;;18.30;16.50;;;;;;;;;;4896165;29;20045;-43
2021/06/09 07:01:52;;;;;;;18.42;15.85;;;;;;;;;;4896354;29;20120;-44
2021/06/09 07:04:20;;;;;;;20.08;16.67;;;;;;;;;;4881349;29;20060;-44
2021/06/09 07:06:48;;;;;;;20.13;17.10;;;;;;;;;;4886077;29;20100;-44
2021/06/09 07:09:17;;;;;;;19.20;16.27;;;;;;;;;;4893309;29;20059;-45
2021/06/09 07:11:45;;;;;;;17.63;15.55;;;;;;;;;;4895537;29;20041;-44
2021/06/09 07:14:13;;;;;;;18.20;15.82;;;;;;;;;;4910713;29;20459;-44
2021/06/09 07:16:40;;;;;;;17.85;16.05;;;;;;;;;;4899132;29;20048;-44
2021/06/09 07:19:08;;;;;;;17.83;15.80;;;;;;;;;;4891889;29;20132;-43
2021/06/09 07:21:35;;;;;;;19.50;16.98;;;;;;;;;;4896246;29;20072;-44
2021/06/09 07:24:02;;;;;;;19.05;17.05;;;;;;;;;;4896217;29;20080;-42
2021/06/09 07:26:32;;;;;;;21.48;18.38;;;;;;;;;;4890202;29;20052;-42
2021/06/09 07:28:59;;;;;;;20.13;17.85;;;;;;;;;;4876122;29;20053;-43
2021/06/09 07:31:28;;;;;;;19.40;17.27;;;;;;;;;;4887479;29;20112;-45
2021/06/09 07:33:55;;;;;;;18.73;16.70;;;;;;;;;;4893197;29;20755;-46
2021/06/09 07:36:43;;;;;;;19.85;17.95;;;;;;;;;;4877485;29;20052;-43
2021/06/09 07:39:15;;;;;;;18.15;16.35;;;;;;;;;;4886117;29;20071;-45
2021/06/09 07:41:43;;;;;;;19.33;17.33;;;;;;;;;;4889944;29;20113;-44
2021/06/09 07:44:10;;;;;;;18.92;16.88;;;;;;;;;;4885464;29;20048;-45
2021/06/09 07:46:39;;;;;;;20.83;16.73;;;;;;;;;;4888934;29;20053;-43
2021/06/09 07:49:09;;;;;;;19.70;17.70;;;;;;;;;;4895070;29;20187;-43
2021/06/09 07:51:37;;;;;;;17.65;15.90;;;;;;;;;;4894148;29;20045;-45
2021/06/09 07:54:05;;;;;;;19.98;16.33;;;;;;;;;;4895539;29;20150;-48
2021/06/09 07:56:35;;;;;;;18.63;16.58;;;;;;;;;;4897196;29;20045;-45
2021/06/09 07:59:03;;;;;;;19.38;17.38;;;;;;;;;;4898420;29;20056;-47
2021/06/09 08:01:31;;;;;;;17.90;15.98;;;;;;;;;;4896886;29;20102;-49
2021/06/09 08:03:58;;;;;;;21.05;15.60;;;;;;;;;;4896646;29;20207;-46
2021/06/09 08:06:26;;;;;;;19.58;17.48;;;;;;;;;;4890766;29;20071;-47
2021/06/09 08:08:52;;;;;;;20.58;18.58;;;;;;;;;;4896239;29;20056;-44
2021/06/09 08:11:21;;;;;;;19.88;17.95;;;;;;;;;;4896456;29;20088;-46
2021/06/09 08:13:48;;;;;;;18.33;16.52;;;;;;;;;;4892485;29;20377;-43
2021/06/09 08:16:19;;;;;;;20.77;18.58;;;;;;;;;;4897352;29;20056;-43
2021/06/09 08:18:47;;;;;;;18.73;16.95;;;;;;;;;;4894946;29;20049;-43
2021/06/09 08:21:15;;;;;;;19.40;17.50;;;;;;;;;;4895388;29;20112;-45
2021/06/09 08:23:43;;;;;;;20.02;18.05;;;;;;;;;;4891674;29;20511;-43
2021/06/09 08:26:12;;;;;;;19.65;17.73;;;;;;;;;;4896303;29;20057;-40
2021/06/09 08:28:40;;;;;;;20.55;18.25;;;;;;;;;;4898845;29;20057;-43
2021/06/09 08:31:08;;;;;;;20.52;18.42;;;;;;;;;;4894766;29;20052;-43
2021/06/09 08:33:36;;;;;;;21.95;17.23;;;;;;;;;;4889467;29;20181;-43
2021/06/09 08:36:05;;;;;;;19.85;17.95;;;;;;;;;;4892634;29;20411;-44
2021/06/09 08:38:33;;;;;;;19.85;17.75;;;;;;;;;;4894748;29;20135;-41
2021/06/09 08:41:00;;;;;;;18.60;16.58;;;;;;;;;;4892559;29;20057;-44
2021/06/09 08:43:26;;;;;;;17.15;15.55;;;;;;;;;;4894474;29;20052;-46
2021/06/09 08:45:53;;;;;;;17.25;15.55;;;;;;;;;;4897193;29;20056;-45
2021/06/09 08:48:20;;;;;;;19.65;17.52;;;;;;;;;;4896242;29;20052;-45
2021/06/09 08:50:48;;;;;;;17.48;15.70;;;;;;;;;;4897823;29;20548;-46
2021/06/09 08:53:21;;;;;;;19.27;17.27;;;;;;;;;;4893973;29;20459;-46
2021/06/09 08:55:49;;;;;;;20.70;18.52;;;;;;;;;;4892570;29;20048;-47
2021/06/09 08:58:17;;;;;;;21.17;18.95;;;;;;;;;;4897174;29;20487;-43
2021/06/09 09:00:44;;;;;;;20.20;18.10;;;;;;;;;;4897086;29;20121;-42
2021/06/09 09:03:11;;;;;;;19.92;17.95;;;;;;;;;;4897570;29;20053;-44
2021/06/09 09:05:38;;;;;;;22.30;17.38;;;;;;;;;;4896254;29;20123;-44
2021/06/09 09:08:05;;;;;;;20.50;18.17;;;;;;;;;;4897119;29;20395;-45
2021/06/09 09:10:33;;;;;;;19.33;16.55;;;;;;;;;;4896119;29;20636;-48
2021/06/09 09:13:00;;;;;;;19.75;17.75;;;;;;;;;;4894676;29;20056;-49
2021/06/09 09:15:27;;;;;;;17.27;15.48;;;;;;;;;;4893837;29;20120;-44
2021/06/09 09:17:55;;;;;;;16.45;14.75;;;;;;;;;;4896259;29;20454;-48
2021/06/09 09:20:23;;;;;;;16.42;14.73;;;;;;;;;;4896179;29;20061;-48
2021/06/09 09:22:52;;;;;;;16.70;14.68;;;;;;;;;;4897694;29;20078;-46
2021/06/09 09:25:20;;;;;;;19.20;15.65;;;;;;;;;;4895369;29;20056;-47
2021/06/09 09:27:51;;;;;;;17.67;15.98;;;;;;;;;;4890181;29;20108;-46
2021/06/09 09:30:19;;;;;;;17.42;15.73;;;;;;;;;;4896297;29;20060;-46
2021/06/09 09:33:00;;;;;;;17.42;15.63;;;;;;;;;;4897361;29;20475;-46
2021/06/09 09:35:28;;;;;;;16.70;14.95;;;;;;;;;;4905945;23;20048;-45
2021/06/09 09:38:14;;;;;;;17.48;15.77;;;;;;;;;;4901813;29;20040;-46
2021/06/09 09:41:01;;;;;;;17.50;15.73;;;;;;;;;;4890891;29;20072;-47
2021/06/09 09:43:57;;;;;;;16.17;14.60;;;;;;;;;;4907031;29;20056;-47
2021/06/09 09:46:24;;;;;;;15.82;14.23;;;;;;;;;;4871161;29;20120;-45
2021/06/09 09:49:06;;;;;;;18.27;16.48;;;;;;;;;;4881659;29;20106;-47
2021/06/09 09:51:42;;;;;;;16.60;15.00;;;;;;;;;;4877944;29;20061;-47
2021/06/09 09:54:09;;;;;;;16.25;14.55;;;;;;;;;;4892335;29;20108;-47
2021/06/09 09:56:37;;;;;;;16.13;14.18;;;;;;;;;;4882039;29;20052;-47
2021/06/09 09:59:06;;;;;;;15.63;14.10;;;;;;;;;;4878219;29;20041;-47
2021/06/09 10:01:45;;;;;;;15.65;14.20;;;;;;;;;;4876774;29;20053;-47
2021/06/09 10:04:17;;;;;;;15.55;13.95;;;;;;;;;;4870810;29;20085;-47
2021/06/09 10:06:45;;;;;;;15.23;13.82;;;;;;;;;;4876853;29;20418;-47
2021/06/09 10:09:12;;;;;;;15.93;14.23;;;;;;;;;;4877081;29;20506;-46
2021/06/09 10:11:49;;;;;;;16.05;13.05;;;;;;;;;;4882832;29;20052;-47
2021/06/09 10:14:17;;;;;;;13.23;11.93;;;;;;;;;;4877042;29;20101;-47
2021/06/09 10:16:45;;;;;;;12.75;11.55;;;;;;;;;;4877766;29;20153;-47
2021/06/09 10:19:13;;;;;;;13.50;12.20;;;;;;;;;;4876648;29;20105;-45
2021/06/09 10:21:49;;;;;;;14.48;11.57;;;;;;;;;;4887984;29;20455;-47
2021/06/09 10:24:16;;;;;;;12.45;11.15;;;;;;;;;;4876960;29;20419;-46
2021/06/09 10:26:51;;;;;;;13.25;10.73;;;;;;;;;;4874663;29;20108;-46
2021/06/09 10:29:20;;;;;;;14.07;12.38;;;;;;;;;;4881658;29;20068;-47
2021/06/09 10:31:53;;;;;;;13.65;11.05;;;;;;;;;;4881384;29;20056;-46
2021/06/09 10:34:20;;;;;;;;;;;;;;;;;;4877063;29;20078;-45
2021/06/09 10:36:48;;;;;;;13.07;11.40;;;;;;;;;;4877062;29;20538;-44
2021/06/09 10:39:16;;;;;;;14.30;13.00;;;;;;;;;;4874857;29;20084;-46
2021/06/09 10:41:44;;;;;;;12.50;11.40;;;;;;;;;;4879189;29;20451;-46
2021/06/09 10:44:12;;;;;;;14.18;12.80;;;;;;;;;;4884372;29;20061;-44
2021/06/09 10:46:42;;;;;;;13.02;10.98;;;;;;;;;;4892598;29;20105;-47
2021/06/09 10:49:12;;;;;;;12.50;10.65;;;;;;;;;;4877025;29;20066;-46
2021/06/09 10:51:39;;;;;;;13.00;11.60;;;;;;;;;;4878558;29;20045;-46
2021/06/09 10:54:11;;;;;;;12.45;11.07;;;;;;;;;;4879291;29;20238;-46
2021/06/09 10:56:42;;;;;;;13.30;11.90;;;;;;;;;;4884002;29;20424;-45
2021/06/09 10:59:13;;;;;;;12.43;11.18;;;;;;;;;;4873093;29;20124;-46
2021/06/09 11:01:41;;;;;;;11.68;10.52;;;;;;;;;;4874629;29;20459;-46
2021/06/09 11:04:08;;;;;;;10.60;9.52;;;;;;;;;;4877092;29;20060;-46
2021/06/09 11:06:38;;;;;;;10.40;8.77;;;;;;;;;;4892505;29;20064;-48
2021/06/09 11:09:15;;;;;;;11.27;9.05;;;;;;;;;;4872626;29;20052;-46
2021/06/09 11:11:42;;;;;;;10.10;8.93;;;;;;;;;;4876114;29;20064;-44
2021/06/09 11:14:20;;;;;;;10.95;9.85;;;;;;;;;;4876846;29;20059;-47
2021/06/09 11:16:48;;;;;;;10.00;9.10;;;;;;;;;;4876818;29;20117;-46
2021/06/09 11:19:36;;;;;;;11.23;8.73;;;;;;;;;;4881500;29;20107;-46
2021/06/09 11:22:19;;;;;;;10.18;9.00;;;;;;;;;;4874558;29;20053;-46
2021/06/09 11:25:05;;;;;;;10.90;9.70;;;;;;;;;;4882867;29;20056;-48
2021/06/09 11:27:33;;;;;;;9.43;8.52;;;;;;;;;;4867204;29;20057;-48
2021/06/09 11:30:20;;;;;;;11.20;8.60;;;;;;;;;;4869381;29;20057;-44
2021/06/09 11:32:46;;;;;;;11.32;8.77;;;;;;;;;;4876208;29;20429;-46
2021/06/09 11:35:14;;;;;;;9.55;8.50;;;;;;;;;;4878452;29;20105;-46
2021/06/09 11:37:40;;;;;;;10.25;8.07;;;;;;;;;;4889764;29;20053;-47
2021/06/09 11:40:08;;;;;;;8.82;7.93;;;;;;;;;;4887893;29;20064;-46
2021/06/09 11:43:06;;;;;;;9.73;8.90;;;;;;;;;;4870582;29;20499;-46
2021/06/09 11:45:35;;;;;;;9.80;8.90;;;;;;;;;;4873226;29;20165;-46
2021/06/09 11:48:14;;;;;;;8.70;7.88;;;;;;;;;;4874639;29;20045;-46
2021/06/09 11:50:41;;;;;;;11.85;7.90;;;;;;;;;;4875905;29;20140;-47
2021/06/09 11:53:20;;;;;;;9.57;8.57;;;;;;;;;;4877320;29;20057;-45
2021/06/09 11:56:06;;;;;;;9.88;8.90;;;;;;;;;;4887986;29;20759;-47
2021/06/09 11:58:37;;;;;;;9.23;8.32;;;;;;;;;;4885688;29;20112;-49
2021/06/09 12:01:08;;;;;;;9.55;8.60;;;;;;;;;;4885804;29;20053;-48
2021/06/09 12:03:40;;;;;;;9.02;7.68;;;;;;;;;;4889857;29;20059;-47
2021/06/09 12:06:14;;;;;;;8.90;8.00;;;;;;;;;;4860322;29;20061;-45
2021/06/09 12:08:45;;;;;;;8.48;7.43;;;;;;;;;;4873352;29;20530;-46
2021/06/09 12:11:12;;;;;;;8.82;7.78;;;;;;;;;;4878691;29;20057;-46
2021/06/09 12:13:41;;;;;;;8.85;7.72;;;;;;;;;;4891558;29;20128;-45
2021/06/09 12:16:18;;;;;;;9.40;8.50;;;;;;;;;;4891251;29;20097;-45
2021/06/09 12:18:45;;;;;;;11.35;7.88;;;;;;;;;;4882255;29;20048;-44
2021/06/09 12:21:14;;;;;;;12.57;7.55;;;;;;;;;;4894470;29;20061;-46
2021/06/09 12:23:57;;;;;;;11.20;8.30;;;;;;;;;;4895414;29;20108;-47
2021/06/09 12:26:24;;;;;;;8.60;7.72;;;;;;;;;;4893226;29;20514;-48
2021/06/09 12:29:04;;;;;;;12.38;8.43;;;;;;;;;;4898778;29;20506;-45
2021/06/09 12:31:35;;;;;;;10.20;9.18;;;;;;;;;;4897825;29;20065;-45
2021/06/09 12:34:04;;;;;;;9.88;8.88;;;;;;;;;;4899489;29;20049;-44
2021/06/09 12:36:49;;;;;;;10.98;8.55;;;;;;;;;;4883996;29;20132;-44
2021/06/09 12:39:16;;;;;;;9.77;8.30;;;;;;;;;;4883038;29;20084;-45
2021/06/09 12:41:44;;;;;;;8.95;8.05;;;;;;;;;;4884669;29;20155;-44
2021/06/09 12:44:11;;;;;;;9.38;8.43;;;;;;;;;;4877460;29;20084;-46
2021/06/09 12:46:38;;;;;;;9.40;8.50;;;;;;;;;;4878682;29;20103;-46
2021/06/09 12:49:19;;;;;;;9.73;8.85;;;;;;;;;;4889653;29;20056;-45
2021/06/09 12:51:58;;;;;;;9.32;8.45;;;;;;;;;;4867123;29;20455;-46
2021/06/09 12:54:26;;;;;;;9.27;7.68;;;;;;;;;;4878093;29;20042;-48
2021/06/09 12:56:52;;;;;;;10.05;8.18;;;;;;;;;;4872121;29;20080;-45
2021/06/09 12:59:48;;;;;;;10.48;7.47;;;;;;;;;;4862259;29;20412;-47
2021/06/09 13:02:17;;;;;;;8.77;7.88;;;;;;;;;;4857165;29;20050;-47
2021/06/09 13:04:44;;;;;;;8.25;7.20;;;;;;;;;;4861905;29;20144;-45
2021/06/09 13:07:11;;;;;;;10.35;7.88;;;;;;;;;;4873788;29;20095;-44
2021/06/09 13:09:38;;;;;;;10.73;8.48;;;;;;;;;;4880250;29;20167;-46
2021/06/09 13:12:04;;;;;;;11.50;10.27;;;;;;;;;;4880239;29;20053;-45
2021/06/09 13:14:38;;;;;;;12.98;11.00;;;;;;;;;;4880193;29;20097;-45
2021/06/09 13:17:07;;;;;;;18.33;11.38;;;;;;;;;;4877902;29;20101;-46
2021/06/09 13:19:35;;;;;;;12.80;11.48;;;;;;;;;;4880249;29;20072;-44
2021/06/09 13:22:05;;;;;;;12.55;10.60;;;;;;;;;;4879981;29;20409;-44
2021/06/09 13:24:37;;;;;;;12.20;10.05;;;;;;;;;;4880198;29;20057;-45
2021/06/09 13:27:09;;;;;;;13.35;10.23;;;;;;;;;;4875161;29;20053;-46
2021/06/09 13:29:55;;;;;;;11.65;10.35;;;;;;;;;;4861483;29;20136;-45
2021/06/09 13:32:21;;;;;;;11.98;10.82;;;;;;;;;;4861615;29;20407;-45
2021/06/09 13:34:53;;;;;;;12.32;10.50;;;;;;;;;;4878567;29;20045;-45
2021/06/09 13:37:24;;;;;;;11.10;10.00;;;;;;;;;;4861231;29;20084;-45
2021/06/09 13:39:52;;;;;;;10.77;9.43;;;;;;;;;;4861252;29;20479;-46
2021/06/09 13:42:29;;;;;;;11.50;9.25;;;;;;;;;;4864800;29;20073;-45
2021/06/09 13:45:00;;;;;;;10.68;9.60;;;;;;;;;;4879537;29;20577;-44
2021/06/09 13:47:31;;;;;;;10.07;9.07;;;;;;;;;;4873773;29;20065;-43
2021/06/09 13:49:59;;;;;;;12.07;8.25;;;;;;;;;;4881107;29;20053;-42
2021/06/09 13:52:31;;;;;;;8.20;7.35;;;;;;;;;;4880100;29;20060;-41
2021/06/09 13:54:58;;;;;;;8.70;6.97;;;;;;;;;;4879536;29;20060;-41
2021/06/09 13:57:29;;;;;;;8.23;6.68;;;;;;;;;;4868512;29;20091;-39
2021/06/09 13:59:57;;;;;;;9.25;6.55;;;;;;;;;;4870567;29;20129;-43
2021/06/09 14:02:28;;;;;;;7.43;6.68;;;;;;;;;;4866325;29;20083;-42
2021/06/09 14:05:14;;;;;;;8.70;7.05;;;;;;;;;;4877603;29;20057;-39
2021/06/09 14:07:46;;;;;;;10.85;9.25;;;;;;;;;;4877910;29;20113;-39
2021/06/09 14:10:15;;;;;;;9.07;8.15;;;;;;;;;;4878181;29;20064;-42
2021/06/09 14:12:46;;;;;;;8.93;8.07;;;;;;;;;;4888424;29;20510;-39
2021/06/09 14:15:19;;;;;;;11.10;8.40;;;;;;;;;;4873646;29;20052;-39
2021/06/09 14:17:48;;;;;;;12.70;8.82;;;;;;;;;;4879635;29;20296;-39
2021/06/09 14:20:20;;;;;;;10.23;8.70;;;;;;;;;;4880305;29;20081;-38
2021/06/09 14:22:49;;;;;;;12.50;8.82;;;;;;;;;;4886848;29;20080;-42
2021/06/09 14:25:17;;;;;;;10.23;9.23;;;;;;;;;;4884098;29;20081;-39
2021/06/09 14:27:58;;;;;;;10.07;8.30;;;;;;;;;;4894418;29;20432;-39
2021/06/09 14:30:28;;;;;;;9.13;8.20;;;;;;;;;;4895166;29;20064;-39
2021/06/09 14:35:46;;;;;;;12.52;9.02;;;;;;;;;;4860274;29;20073;-40
2021/06/09 14:38:15;;;;;;;11.00;9.52;;;;;;;;;;4881491;29;20128;-41